Time,TemperatureF,DewpointF,PressureIn,WindDirection,WindDirectionDegrees,WindSpeedMPH,WindSpeedGustMPH,Humidity,HourlyPrecipIn,Conditions,Clouds,dailyrainin,SoftwareType,DateUTC
2013-04-28 00:02:00,60.6,43.8,29.83,South,180,7.0,12.5,54,0.00,,,0.00,WUHU21623XXSP,2013-04-28 05:02:00,
2013-04-28 00:07:00,60.6,43.8,29.83,SSW,202,10.5,12.1,54,0.00,,,0.00,WUHU21623XXSP,2013-04-28 05:07:00,
2013-04-28 00:12:00,60.8,44.5,29.83,South,174,8.4,12.1,55,0.00,,,0.00,WUHU21623XXSP,2013-04-28 05:12:00,
2013-04-28 00:17:00,60.8,44.5,29.83,SSE,157,12.8,12.8,55,0.00,,,0.00,WUHU21623XXSP,2013-04-28 05:17:00,
2013-04-28 00:22:00,60.8,44.5,29.83,SSE,157,17.0,17.0,55,0.00,,,0.00,WUHU21623XXSP,2013-04-28 05:22:00,
2013-04-28 00:27:00,60.6,44.3,29.82,South,181,8.5,17.0,55,0.00,,,0.00,WUHU21623XXSP,2013-04-28 05:27:00,
2013-04-28 00:32:00,60.6,44.8,29.82,SSW,202,9.2,11.2,56,0.00,,,0.00,WUHU21623XXSP,2013-04-28 05:32:00,
2013-04-28 00:37:00,60.6,44.8,29.82,South,180,9.6,12.8,56,0.00,,,0.00,WUHU21623XXSP,2013-04-28 05:37:00,
2013-04-28 00:42:00,60.4,44.6,29.82,South,180,11.2,16.3,56,0.00,,,0.00,WUHU21623XXSP,2013-04-28 05:42:00,
2013-04-28 00:47:00,60.4,44.6,29.82,SSE,164,7.5,16.3,56,0.00,,,0.00,WUHU21623XXSP,2013-04-28 05:47:00,
2013-04-28 00:52:00,60.4,44.6,29.82,South,180,9.6,13.9,56,0.00,,,0.00,WUHU21623XXSP,2013-04-28 05:52:00,
2013-04-28 00:57:00,60.3,44.9,29.82,SSW,193,10.7,11.9,57,0.00,,,0.00,WUHU21623XXSP,2013-04-28 05:57:00,
2013-04-28 01:02:00,60.1,44.8,29.82,South,180,10.1,15.7,57,0.00,,,0.00,WUHU21623XXSP,2013-04-28 06:02:00,
2013-04-28 01:07:00,60.1,44.8,29.82,South,178,9.3,16.6,57,0.00,,,0.00,WUHU21623XXSP,2013-04-28 06:07:00,
2013-04-28 01:12:00,60.1,44.8,29.82,South,180,8.9,16.6,57,0.00,,,0.00,WUHU21623XXSP,2013-04-28 06:12:00,
2013-04-28 01:17:00,60.1,44.8,29.81,SSW,202,10.5,16.1,57,0.00,,,0.00,WUHU21623XXSP,2013-04-28 06:17:00,
2013-04-28 01:22:00,59.9,45.1,29.82,South,180,11.9,15.2,58,0.00,,,0.00,WUHU21623XXSP,2013-04-28 06:22:00,
2013-04-28 01:27:00,59.9,45.1,29.82,SSW,202,14.1,15.9,58,0.00,,,0.00,WUHU21623XXSP,2013-04-28 06:27:00,
2013-04-28 01:32:00,59.7,44.9,29.82,SSW,202,12.1,15.9,58,0.00,,,0.00,WUHU21623XXSP,2013-04-28 06:32:00,
2013-04-28 01:37:00,59.7,44.9,29.82,SSW,202,11.4,14.1,58,0.00,,,0.00,WUHU21623XXSP,2013-04-28 06:37:00,
2013-04-28 01:42:00,59.5,44.7,29.82,SSW,192,7.4,12.3,58,0.00,,,0.00,WUHU21623XXSP,2013-04-28 06:42:00,
2013-04-28 01:47:00,59.5,44.7,29.82,South,184,12.4,15.4,58,0.00,,,0.00,WUHU21623XXSP,2013-04-28 06:47:00,
2013-04-28 01:52:00,59.4,45.0,29.82,South,186,10.2,15.4,59,0.00,,,0.00,WUHU21623XXSP,2013-04-28 06:52:00,
2013-04-28 01:57:00,59.0,44.7,29.82,South,180,12.1,13.6,59,0.00,,,0.00,WUHU21623XXSP,2013-04-28 06:57:00,
2013-04-28 02:02:00,58.8,44.5,29.82,South,180,13.0,17.0,59,0.00,,,0.00,WUHU21623XXSP,2013-04-28 07:02:00,
2013-04-28 02:07:00,58.8,44.5,29.82,SSW,202,8.9,17.0,59,0.00,,,0.00,WUHU21623XXSP,2013-04-28 07:07:00,
2013-04-28 02:12:00,58.8,44.5,29.82,SSE,157,10.5,15.7,59,0.00,,,0.00,WUHU21623XXSP,2013-04-28 07:12:00,
2013-04-28 02:17:00,58.8,44.5,29.82,SSW,202,10.7,16.1,59,0.00,,,0.00,WUHU21623XXSP,2013-04-28 07:17:00,
2013-04-28 02:22:00,58.6,44.3,29.82,South,180,10.7,16.1,59,0.00,,,0.00,WUHU21623XXSP,2013-04-28 07:22:00,
2013-04-28 02:27:00,58.6,44.8,29.82,SSW,197,7.9,12.8,60,0.00,,,0.00,WUHU21623XXSP,2013-04-28 07:27:00,
2013-04-28 02:32:00,58.3,44.5,29.82,SSW,192,9.5,12.3,60,0.00,,,0.00,WUHU21623XXSP,2013-04-28 07:32:00,
2013-04-28 02:37:00,58.1,44.3,29.82,South,186,5.4,11.9,60,0.00,,,0.00,WUHU21623XXSP,2013-04-28 07:37:00,
2013-04-28 02:42:00,57.9,44.2,29.82,SSW,193,9.0,11.9,60,0.00,,,0.00,WUHU21623XXSP,2013-04-28 07:42:00,
2013-04-28 02:47:00,57.9,44.6,29.81,SSW,202,9.4,17.4,61,0.00,,,0.00,WUHU21623XXSP,2013-04-28 07:47:00,
2013-04-28 02:52:00,57.7,44.4,29.81,South,188,10.3,17.4,61,0.00,,,0.00,WUHU21623XXSP,2013-04-28 07:52:00,
2013-04-28 02:57:00,57.6,44.2,29.81,South,180,10.7,14.3,61,0.00,,,0.00,WUHU21623XXSP,2013-04-28 07:57:00,
2013-04-28 03:02:00,57.4,44.1,29.81,South,178,8.2,14.1,61,0.00,,,0.00,WUHU21623XXSP,2013-04-28 08:02:00,
2013-04-28 03:07:00,57.4,44.5,29.81,SSW,207,7.5,12.8,62,0.00,,,0.00,WUHU21623XXSP,2013-04-28 08:07:00,
2013-04-28 03:12:00,57.0,44.1,29.81,SSW,203,8.1,12.5,62,0.00,,,0.00,WUHU21623XXSP,2013-04-28 08:12:00,
2013-04-28 03:17:00,57.0,44.1,29.81,South,176,6.2,12.5,62,0.00,,,0.00,WUHU21623XXSP,2013-04-28 08:17:00,
2013-04-28 03:22:00,56.8,44.0,29.81,South,180,12.1,13.6,62,0.00,,,0.00,WUHU21623XXSP,2013-04-28 08:22:00,
2013-04-28 03:27:00,56.8,44.0,29.81,SSW,202,11.6,15.7,62,0.00,,,0.00,WUHU21623XXSP,2013-04-28 08:27:00,
2013-04-28 03:32:00,56.7,43.8,29.81,SSE,157,9.4,15.7,62,0.00,,,0.00,WUHU21623XXSP,2013-04-28 08:32:00,
2013-04-28 03:37:00,56.5,44.0,29.81,South,178,8.6,16.8,63,0.00,,,0.00,WUHU21623XXSP,2013-04-28 08:37:00,
2013-04-28 03:42:00,56.5,44.0,29.81,SSW,192,6.0,16.8,63,0.00,,,0.00,WUHU21623XXSP,2013-04-28 08:42:00,
2013-04-28 03:47:00,56.3,43.8,29.80,SSW,202,10.1,14.5,63,0.00,,,0.00,WUHU21623XXSP,2013-04-28 08:47:00,
2013-04-28 03:52:00,56.1,44.1,29.81,South,180,15.2,15.2,64,0.00,,,0.00,WUHU21623XXSP,2013-04-28 08:52:00,
2013-04-28 03:57:00,55.9,43.9,29.80,SSW,192,10.8,15.2,64,0.00,,,0.00,WUHU21623XXSP,2013-04-28 08:57:00,
2013-04-28 04:02:00,55.9,43.9,29.81,SSW,192,7.5,14.8,64,0.00,,,0.00,WUHU21623XXSP,2013-04-28 09:02:00,
2013-04-28 04:07:00,55.8,44.1,29.81,South,180,9.6,14.8,65,0.00,,,0.00,WUHU21623XXSP,2013-04-28 09:07:00,
2013-04-28 04:12:00,55.8,44.1,29.81,South,180,12.1,17.2,65,0.00,,,0.00,WUHU21623XXSP,2013-04-28 09:12:00,
2013-04-28 04:17:00,55.6,44.4,29.80,SSW,196,8.6,17.2,66,0.00,,,0.00,WUHU21623XXSP,2013-04-28 09:17:00,
2013-04-28 04:22:00,55.4,44.2,29.80,South,186,8.9,14.1,66,0.00,,,0.00,WUHU21623XXSP,2013-04-28 09:22:00,
2013-04-28 04:27:00,55.2,44.0,29.80,South,180,8.3,16.6,66,0.00,,,0.00,WUHU21623XXSP,2013-04-28 09:27:00,
2013-04-28 04:32:00,55.0,43.8,29.80,South,190,6.5,16.6,66,0.00,,,0.00,WUHU21623XXSP,2013-04-28 09:32:00,
2013-04-28 04:37:00,55.0,44.3,29.80,South,189,7.5,15.7,67,0.00,,,0.00,WUHU21623XXSP,2013-04-28 09:37:00,
2013-04-28 04:42:00,54.9,44.1,29.80,South,182,6.7,12.8,67,0.00,,,0.00,WUHU21623XXSP,2013-04-28 09:42:00,
2013-04-28 04:47:00,54.7,43.9,29.80,South,188,6.8,11.4,67,0.00,,,0.00,WUHU21623XXSP,2013-04-28 09:47:00,
2013-04-28 04:52:00,54.5,43.7,29.80,South,182,9.1,14.5,67,0.00,,,0.00,WUHU21623XXSP,2013-04-28 09:52:00,
2013-04-28 04:57:00,54.5,44.1,29.80,South,180,11.4,14.5,68,0.00,,,0.00,WUHU21623XXSP,2013-04-28 09:57:00,
2013-04-28 05:02:00,54.3,44.0,29.80,South,180,12.8,15.2,68,0.00,,,0.00,WUHU21623XXSP,2013-04-28 10:02:00,
2013-04-28 05:07:00,54.3,44.0,29.80,SSW,193,8.1,15.2,68,0.00,,,0.00,WUHU21623XXSP,2013-04-28 10:07:00,
2013-04-28 05:12:00,54.1,43.8,29.80,SSW,205,8.7,14.3,68,0.00,,,0.00,WUHU21623XXSP,2013-04-28 10:12:00,
2013-04-28 05:17:00,54.0,43.6,29.80,SSE,157,9.4,14.3,68,0.00,,,0.00,WUHU21623XXSP,2013-04-28 10:17:00,
2013-04-28 05:22:00,54.0,43.6,29.80,South,179,5.8,9.8,68,0.00,,,0.00,WUHU21623XXSP,2013-04-28 10:22:00,
2013-04-28 05:27:00,53.8,43.8,29.80,SSW,202,8.5,12.3,69,0.00,,,0.00,WUHU21623XXSP,2013-04-28 10:27:00,
2013-04-28 05:32:00,53.8,43.8,29.80,South,187,9.6,13.0,69,0.00,,,0.00,WUHU21623XXSP,2013-04-28 10:32:00,
2013-04-28 05:37:00,53.8,43.8,29.80,South,180,10.5,13.0,69,0.00,,,0.00,WUHU21623XXSP,2013-04-28 10:37:00,
2013-04-28 05:42:00,53.4,43.5,29.80,South,189,5.4,13.9,69,0.00,,,0.00,WUHU21623XXSP,2013-04-28 10:42:00,
2013-04-28 05:48:00,53.4,43.9,29.80,South,180,10.7,13.9,70,0.00,,,0.00,WUHU21623XXSP,2013-04-28 10:48:00,
2013-04-28 05:53:00,53.4,43.9,29.80,South,180,9.8,10.7,70,0.00,,,0.00,WUHU21623XXSP,2013-04-28 10:53:00,
2013-04-28 05:57:00,53.2,43.7,29.80,SSE,157,8.1,11.2,70,0.00,,,0.00,WUHU21623XXSP,2013-04-28 10:57:00,
2013-04-28 06:03:00,53.2,44.1,29.79,South,180,8.9,14.3,71,0.00,,,0.00,WUHU21623XXSP,2013-04-28 11:03:00,
2013-04-28 06:08:00,53.2,44.1,29.79,South,184,8.6,14.3,71,0.00,,,0.00,WUHU21623XXSP,2013-04-28 11:08:00,
2013-04-28 06:13:00,52.9,43.8,29.79,South,170,6.8,13.6,71,0.00,,,0.00,WUHU21623XXSP,2013-04-28 11:13:00,
2013-04-28 06:18:00,52.9,44.1,29.79,South,189,7.3,11.4,72,0.00,,,0.00,WUHU21623XXSP,2013-04-28 11:18:00,
2013-04-28 06:23:00,52.7,44.0,29.78,South,180,8.7,11.4,72,0.00,,,0.00,WUHU21623XXSP,2013-04-28 11:23:00,
2013-04-28 06:28:00,52.7,44.0,29.79,South,180,8.7,11.6,72,0.00,,,0.00,WUHU21623XXSP,2013-04-28 11:28:00,
2013-04-28 06:33:00,52.7,44.3,29.78,South,180,9.2,11.6,73,0.00,,,0.00,WUHU21623XXSP,2013-04-28 11:33:00,
2013-04-28 06:38:00,52.5,44.1,29.78,South,180,5.9,12.1,73,0.00,,,0.00,WUHU21623XXSP,2013-04-28 11:38:00,
2013-04-28 06:43:00,52.5,44.1,29.78,South,180,9.2,12.1,73,0.00,,,0.00,WUHU21623XXSP,2013-04-28 11:43:00,
2013-04-28 06:48:00,52.5,44.1,29.78,South,182,6.6,11.2,73,0.00,,,0.00,WUHU21623XXSP,2013-04-28 11:48:00,
2013-04-28 06:53:00,52.5,44.1,29.77,South,180,5.6,11.2,73,0.00,,,0.00,WUHU21623XXSP,2013-04-28 11:53:00,
2013-04-28 06:58:00,52.7,44.3,29.77,South,178,7.3,12.3,73,0.00,,,0.00,WUHU21623XXSP,2013-04-28 11:58:00,
2013-04-28 07:03:00,52.7,44.3,29.77,SSE,157,5.4,12.3,73,0.00,,,0.00,WUHU21623XXSP,2013-04-28 12:03:00,
2013-04-28 07:08:00,52.9,44.5,29.77,South,177,4.9,12.8,73,0.00,,,0.00,WUHU21623XXSP,2013-04-28 12:08:00,
2013-04-28 07:13:00,52.9,44.5,29.77,South,189,5.1,12.8,73,0.00,,,0.00,WUHU21623XXSP,2013-04-28 12:13:00,
2013-04-28 07:18:00,53.1,45.0,29.77,South,172,6.6,13.0,74,0.00,,,0.00,WUHU21623XXSP,2013-04-28 12:18:00,
2013-04-28 07:23:00,53.2,45.2,29.77,South,180,8.3,13.0,74,0.00,,,0.00,WUHU21623XXSP,2013-04-28 12:23:00,
2013-04-28 07:28:00,53.4,45.3,29.77,South,180,10.5,10.5,74,0.00,,,0.00,WUHU21623XXSP,2013-04-28 12:28:00,
2013-04-28 07:33:00,53.4,45.3,29.77,South,175,6.1,10.5,74,0.00,,,0.00,WUHU21623XXSP,2013-04-28 12:33:00,
2013-04-28 07:38:00,53.8,45.7,29.77,South,180,11.4,11.4,74,0.00,,,0.00,WUHU21623XXSP,2013-04-28 12:38:00,
2013-04-28 07:43:00,54.0,45.8,29.77,South,179,7.5,13.0,74,0.00,,,0.00,WUHU21623XXSP,2013-04-28 12:43:00,
2013-04-28 07:48:00,54.3,45.8,29.77,SSW,202,10.3,13.0,73,0.00,,,0.00,WUHU21623XXSP,2013-04-28 12:48:00,
2013-04-28 07:53:00,54.7,46.2,29.77,South,176,7.8,11.9,73,0.00,,,0.00,WUHU21623XXSP,2013-04-28 12:53:00,
2013-04-28 07:58:00,55.0,46.2,29.77,South,183,6.9,15.0,72,0.00,,,0.00,WUHU21623XXSP,2013-04-28 12:58:00,
2013-04-28 08:03:00,55.2,46.4,29.77,South,190,9.9,16.6,72,0.00,,,0.00,WUHU21623XXSP,2013-04-28 13:03:00,
2013-04-28 08:08:00,55.8,46.9,29.77,South,185,5.8,16.6,72,0.00,,,0.00,WUHU21623XXSP,2013-04-28 13:08:00,
2013-04-28 08:13:00,56.1,47.2,29.77,SSW,202,10.5,11.4,72,0.00,,,0.00,WUHU21623XXSP,2013-04-28 13:13:00,
2013-04-28 08:18:00,56.5,47.2,29.77,South,180,6.9,10.7,71,0.00,,,0.00,WUHU21623XXSP,2013-04-28 13:18:00,
2013-04-28 08:23:00,57.0,47.7,29.77,SSE,157,9.6,10.3,71,0.00,,,0.00,WUHU21623XXSP,2013-04-28 13:23:00,
2013-04-28 08:28:00,57.7,48.0,29.77,South,187,7.5,9.8,70,0.00,,,0.00,WUHU21623XXSP,2013-04-28 13:28:00,
2013-04-28 08:33:00,58.3,48.1,29.77,South,181,7.6,14.3,69,0.00,,,0.00,WUHU21623XXSP,2013-04-28 13:33:00,
2013-04-28 08:38:00,58.8,48.3,29.77,South,180,8.9,15.4,68,0.00,,,0.00,WUHU21623XXSP,2013-04-28 13:38:00,
2013-04-28 08:43:00,58.8,47.9,29.76,South,188,10.4,15.4,67,0.00,,,0.00,WUHU21623XXSP,2013-04-28 13:43:00,
2013-04-28 08:48:00,58.8,47.4,29.76,SE,135,7.8,14.1,66,0.00,,,0.00,WUHU21623XXSP,2013-04-28 13:48:00,
2013-04-28 08:53:00,58.8,47.0,29.76,South,183,7.8,11.9,65,0.00,,,0.00,WUHU21623XXSP,2013-04-28 13:53:00,
2013-04-28 08:58:00,59.0,47.2,29.76,South,179,5.1,12.3,65,0.00,,,0.00,WUHU21623XXSP,2013-04-28 13:58:00,
2013-04-28 09:03:00,59.2,47.4,29.76,South,172,9.3,14.1,65,0.00,,,0.00,WUHU21623XXSP,2013-04-28 14:03:00,
2013-04-28 09:08:00,59.4,47.6,29.75,SSE,168,5.4,14.1,65,0.00,,,0.00,WUHU21623XXSP,2013-04-28 14:08:00,
2013-04-28 09:13:00,59.7,47.9,29.75,South,181,8.7,12.8,65,0.00,,,0.00,WUHU21623XXSP,2013-04-28 14:13:00,
2013-04-28 09:18:00,60.1,48.3,29.75,South,174,7.2,12.8,65,0.00,,,0.00,WUHU21623XXSP,2013-04-28 14:18:00,
2013-04-28 09:23:00,60.4,48.2,29.75,South,180,5.8,10.7,64,0.00,,,0.00,WUHU21623XXSP,2013-04-28 14:23:00,
2013-04-28 09:29:00,60.8,48.2,29.74,South,180,8.9,14.3,63,0.00,,,0.00,WUHU21623XXSP,2013-04-28 14:29:00,
2013-04-28 09:34:00,61.3,48.7,29.74,SSE,155,7.6,14.3,63,0.00,,,0.00,WUHU21623XXSP,2013-04-28 14:34:00,
2013-04-28 09:39:00,61.5,48.4,29.74,South,184,7.8,15.4,62,0.00,,,0.00,WUHU21623XXSP,2013-04-28 14:39:00,
2013-04-28 09:44:00,62.1,48.5,29.73,South,180,6.7,15.4,61,0.00,,,0.00,WUHU21623XXSP,2013-04-28 14:44:00,
2013-04-28 09:49:00,62.4,48.8,29.74,South,169,9.9,15.0,61,0.00,,,0.00,WUHU21623XXSP,2013-04-28 14:49:00,
2013-04-28 09:54:00,63.0,48.9,29.73,South,180,13.2,19.0,60,0.00,,,0.00,WUHU21623XXSP,2013-04-28 14:54:00,
2013-04-28 09:59:00,63.5,48.9,29.73,SSE,162,9.5,19.0,59,0.00,,,0.00,WUHU21623XXSP,2013-04-28 14:59:00,
2013-04-28 10:04:00,63.7,48.6,29.72,SSE,157,11.0,16.8,58,0.00,,,0.00,WUHU21623XXSP,2013-04-28 15:04:00,
2013-04-28 10:09:00,64.2,49.0,29.72,SSW,202,9.4,15.4,58,0.00,,,0.00,WUHU21623XXSP,2013-04-28 15:09:00,
2013-04-28 10:14:00,64.6,48.9,29.72,SSE,164,7.2,16.1,57,0.00,,,0.00,WUHU21623XXSP,2013-04-28 15:14:00,
2013-04-28 10:19:00,65.1,49.4,29.72,SSE,165,11.5,16.1,57,0.00,,,0.00,WUHU21623XXSP,2013-04-28 15:19:00,
2013-04-28 10:24:00,65.7,49.5,29.72,SSW,202,10.5,15.7,56,0.00,,,0.00,WUHU21623XXSP,2013-04-28 15:24:00,
2013-04-28 10:29:00,66.2,49.1,29.72,SSW,202,19.5,19.7,54,0.00,,,0.00,WUHU21623XXSP,2013-04-28 15:29:00,
2013-04-28 10:34:00,66.6,48.9,29.71,South,178,10.2,19.7,53,0.00,,,0.00,WUHU21623XXSP,2013-04-28 15:34:00,
2013-04-28 10:39:00,66.7,49.1,29.71,South,174,12.1,18.8,53,0.00,,,0.00,WUHU21623XXSP,2013-04-28 15:39:00,
2013-04-28 10:44:00,66.7,48.6,29.71,SSW,202,21.3,23.0,52,0.00,,,0.00,WUHU21623XXSP,2013-04-28 15:44:00,
2013-04-28 10:49:00,66.7,48.6,29.70,South,180,12.1,23.0,52,0.00,,,0.00,WUHU21623XXSP,2013-04-28 15:49:00,
2013-04-28 10:54:00,67.1,48.9,29.71,South,185,14.6,20.6,52,0.00,,,0.00,WUHU21623XXSP,2013-04-28 15:54:00,
2013-04-28 10:59:00,67.6,49.4,29.71,South,187,11.2,20.6,52,0.00,,,0.00,WUHU21623XXSP,2013-04-28 15:59:00,
2013-04-28 11:04:00,68.4,49.1,29.71,South,169,12.6,21.9,50,0.00,,,0.00,WUHU21623XXSP,2013-04-28 16:04:00,
2013-04-28 11:09:00,68.5,48.6,29.71,SSW,202,17.2,21.9,49,0.00,,,0.00,WUHU21623XXSP,2013-04-28 16:09:00,
2013-04-28 11:14:00,68.7,48.8,29.71,South,180,21.7,21.7,49,0.00,,,0.00,WUHU21623XXSP,2013-04-28 16:14:00,
2013-04-28 11:19:00,69.1,49.1,29.71,South,186,12.5,21.7,49,0.00,,,0.00,WUHU21623XXSP,2013-04-28 16:19:00,
2013-04-28 11:24:00,69.4,48.8,29.70,SSW,202,13.0,19.9,48,0.00,,,0.00,WUHU21623XXSP,2013-04-28 16:24:00,
2013-04-28 11:29:00,69.6,48.4,29.71,SSE,157,14.1,22.6,47,0.00,,,0.00,WUHU21623XXSP,2013-04-28 16:29:00,
2013-04-28 11:34:00,70.0,48.1,29.70,South,184,15.4,22.6,46,0.00,,,0.00,WUHU21623XXSP,2013-04-28 16:34:00,
2013-04-28 11:39:00,70.0,48.1,29.70,South,173,14.1,20.8,46,0.00,,,0.00,WUHU21623XXSP,2013-04-28 16:39:00,
2013-04-28 11:44:00,70.2,48.3,29.70,South,180,16.1,21.7,46,0.00,,,0.00,WUHU21623XXSP,2013-04-28 16:44:00,
2013-04-28 11:49:00,70.2,48.3,29.70,SSW,202,11.9,21.7,46,0.00,,,0.00,WUHU21623XXSP,2013-04-28 16:49:00,
2013-04-28 11:54:00,70.3,48.5,29.70,SSW,202,13.2,20.4,46,0.00,,,0.00,WUHU21623XXSP,2013-04-28 16:54:00,
2013-04-28 11:59:00,70.5,48.0,29.70,SSW,197,12.7,19.0,45,0.00,,,0.00,WUHU21623XXSP,2013-04-28 16:59:00,
2013-04-28 12:04:00,70.7,48.8,29.70,SSW,194,11.8,19.0,46,0.00,,,0.00,WUHU21623XXSP,2013-04-28 17:04:00,
2013-04-28 12:09:00,71.2,48.7,29.70,South,191,16.6,22.1,45,0.00,,,0.00,WUHU21623XXSP,2013-04-28 17:09:00,
2013-04-28 12:14:00,71.4,48.8,29.70,SW,225,16.8,22.1,45,0.00,,,0.00,WUHU21623XXSP,2013-04-28 17:14:00,
2013-04-28 12:19:00,71.8,48.0,29.70,SSW,193,17.3,22.1,43,0.00,,,0.00,WUHU21623XXSP,2013-04-28 17:19:00,
2013-04-28 12:24:00,72.0,48.1,29.69,South,181,15.8,22.1,43,0.00,,,0.00,WUHU21623XXSP,2013-04-28 17:24:00,
2013-04-28 12:29:00,72.1,48.3,29.69,SSW,202,16.8,22.4,43,0.00,,,0.00,WUHU21623XXSP,2013-04-28 17:29:00,
2013-04-28 12:34:00,72.5,48.6,29.69,SSW,202,16.6,23.3,43,0.00,,,0.00,WUHU21623XXSP,2013-04-28 17:34:00,
2013-04-28 12:39:00,73.2,48.7,29.69,South,180,12.5,23.3,42,0.00,,,0.00,WUHU21623XXSP,2013-04-28 17:39:00,
2013-04-28 12:44:00,73.8,49.2,29.69,SSW,202,17.7,22.4,42,0.00,,,0.00,WUHU21623XXSP,2013-04-28 17:44:00,
2013-04-28 12:49:00,73.9,48.7,29.69,South,182,12.9,19.9,41,0.00,,,0.00,WUHU21623XXSP,2013-04-28 17:49:00,
2013-04-28 12:54:00,74.5,49.2,29.68,SSW,202,15.7,19.5,41,0.00,,,0.00,WUHU21623XXSP,2013-04-28 17:54:00,
2013-04-28 12:59:00,75.0,49.1,29.68,SSW,202,17.4,22.1,40,0.00,,,0.00,WUHU21623XXSP,2013-04-28 17:59:00,
2013-04-28 13:04:00,75.4,49.4,29.68,South,190,13.9,22.1,40,0.00,,,0.00,WUHU21623XXSP,2013-04-28 18:04:00,
2013-04-28 13:09:00,75.7,49.0,29.68,SSW,202,13.0,21.9,39,0.00,,,0.00,WUHU21623XXSP,2013-04-28 18:09:00,
2013-04-28 13:14:00,75.9,49.2,29.68,South,189,17.5,21.7,39,0.00,,,0.00,WUHU21623XXSP,2013-04-28 18:14:00,
2013-04-28 13:19:00,75.9,49.2,29.67,SSW,197,14.5,21.7,39,0.00,,,0.00,WUHU21623XXSP,2013-04-28 18:19:00,
2013-04-28 13:24:00,75.9,49.2,29.67,South,188,11.4,21.3,39,0.00,,,0.00,WUHU21623XXSP,2013-04-28 18:24:00,
2013-04-28 13:29:00,76.3,49.5,29.67,SW,225,20.1,22.1,39,0.00,,,0.00,WUHU21623XXSP,2013-04-28 18:29:00,
2013-04-28 13:34:00,76.6,49.8,29.67,WSW,247,9.2,22.1,39,0.00,,,0.00,WUHU21623XXSP,2013-04-28 18:34:00,
2013-04-28 13:39:00,77.0,50.1,29.68,SW,215,11.0,15.9,39,0.00,,,0.00,WUHU21623XXSP,2013-04-28 18:39:00,
2013-04-28 13:44:00,77.0,50.1,29.67,SSW,202,15.0,19.7,39,0.00,,,0.00,WUHU21623XXSP,2013-04-28 18:44:00,
2013-04-28 13:49:00,77.2,49.5,29.67,South,182,13.8,19.7,38,0.00,,,0.00,WUHU21623XXSP,2013-04-28 18:49:00,
2013-04-28 13:54:00,77.5,49.9,29.67,SW,225,17.2,21.0,38,0.00,,,0.00,WUHU21623XXSP,2013-04-28 18:54:00,
2013-04-28 13:59:00,77.5,49.9,29.67,South,180,14.8,21.0,38,0.00,,,0.00,WUHU21623XXSP,2013-04-28 18:59:00,
2013-04-28 14:04:00,77.5,49.1,29.66,South,183,13.9,22.4,37,0.00,,,0.00,WUHU21623XXSP,2013-04-28 19:04:00,
2013-04-28 14:09:00,77.5,49.9,29.66,South,191,12.9,22.4,38,0.00,,,0.00,WUHU21623XXSP,2013-04-28 19:09:00,
2013-04-28 14:14:00,77.7,49.2,29.66,South,180,13.0,18.3,37,0.00,,,0.00,WUHU21623XXSP,2013-04-28 19:14:00,
2013-04-28 14:19:00,78.1,49.6,29.66,SSW,192,8.1,18.3,37,0.00,,,0.00,WUHU21623XXSP,2013-04-28 19:19:00,
2013-04-28 14:24:00,78.4,49.9,29.66,SSW,202,21.7,21.7,37,0.00,,,0.00,WUHU21623XXSP,2013-04-28 19:24:00,
2013-04-28 14:29:00,78.1,49.6,29.66,South,182,13.2,21.7,37,0.00,,,0.00,WUHU21623XXSP,2013-04-28 19:29:00,
2013-04-28 14:34:00,78.3,49.7,29.66,SSW,202,12.1,21.7,37,0.00,,,0.00,WUHU21623XXSP,2013-04-28 19:34:00,
2013-04-28 14:39:00,78.4,49.9,29.66,South,180,13.4,19.0,37,0.00,,,0.00,WUHU21623XXSP,2013-04-28 19:39:00,
2013-04-28 14:44:00,78.6,50.0,29.66,SSW,202,17.4,17.4,37,0.00,,,0.00,WUHU21623XXSP,2013-04-28 19:44:00,
2013-04-28 14:49:00,78.6,50.0,29.65,South,182,11.4,21.0,37,0.00,,,0.00,WUHU21623XXSP,2013-04-28 19:49:00,
2013-04-28 14:54:00,79.0,49.6,29.65,South,179,11.6,21.0,36,0.00,,,0.00,WUHU21623XXSP,2013-04-28 19:54:00,
2013-04-28 14:59:00,79.2,49.7,29.64,South,187,8.7,19.0,36,0.00,,,0.00,WUHU21623XXSP,2013-04-28 19:59:00,
2013-04-28 15:04:00,79.5,50.1,29.65,South,173,8.6,19.0,36,0.00,,,0.00,WUHU21623XXSP,2013-04-28 20:04:00,
2013-04-28 15:09:00,80.1,50.6,29.64,SSW,196,9.6,17.4,36,0.00,,,0.00,WUHU21623XXSP,2013-04-28 20:09:00,
2013-04-28 15:14:00,80.2,49.9,29.64,SSW,196,10.2,18.8,35,0.00,,,0.00,WUHU21623XXSP,2013-04-28 20:14:00,
2013-04-28 15:19:00,80.4,50.1,29.64,SSW,193,12.1,19.0,35,0.00,,,0.00,WUHU21623XXSP,2013-04-28 20:19:00,
2013-04-28 15:24:00,80.4,50.1,29.63,SSW,209,12.6,19.0,35,0.00,,,0.00,WUHU21623XXSP,2013-04-28 20:24:00,
2013-04-28 15:29:00,80.4,50.1,29.63,South,180,15.7,19.5,35,0.00,,,0.00,WUHU21623XXSP,2013-04-28 20:29:00,
2013-04-28 15:34:00,80.4,50.1,29.63,South,180,11.4,19.5,35,0.00,,,0.00,WUHU21623XXSP,2013-04-28 20:34:00,
2013-04-28 15:39:00,80.4,49.3,29.63,South,189,12.8,18.3,34,0.00,,,0.00,WUHU21623XXSP,2013-04-28 20:39:00,
2013-04-28 15:44:00,80.1,49.8,29.62,South,180,8.1,18.3,35,0.00,,,0.00,WUHU21623XXSP,2013-04-28 20:44:00,
2013-04-28 15:49:00,79.9,49.6,29.62,SSW,202,12.1,15.9,35,0.00,,,0.00,WUHU21623XXSP,2013-04-28 20:49:00,
2013-04-28 15:54:00,79.9,49.6,29.61,South,183,11.7,15.9,35,0.00,,,0.00,WUHU21623XXSP,2013-04-28 20:54:00,
2013-04-28 15:59:00,79.7,49.5,29.62,South,180,12.1,15.9,35,0.00,,,0.00,WUHU21623XXSP,2013-04-28 20:59:00,
2013-04-28 16:04:00,79.5,48.5,29.62,South,185,11.3,22.8,34,0.00,,,0.00,WUHU21623XXSP,2013-04-28 21:04:00,
2013-04-28 16:09:00,79.2,49.0,29.61,South,180,17.4,22.8,35,0.00,,,0.00,WUHU21623XXSP,2013-04-28 21:09:00,
2013-04-28 16:14:00,79.0,48.8,29.61,SW,225,15.2,17.4,35,0.00,,,0.00,WUHU21623XXSP,2013-04-28 21:14:00,
2013-04-28 16:19:00,78.6,48.5,29.61,South,180,12.3,16.6,35,0.00,,,0.00,WUHU21623XXSP,2013-04-28 21:19:00,
2013-04-28 16:24:00,78.8,48.7,29.61,South,187,7.4,15.2,35,0.00,,,0.00,WUHU21623XXSP,2013-04-28 21:24:00,
2013-04-28 16:29:00,79.0,48.8,29.61,SSW,192,9.5,14.8,35,0.00,,,0.00,WUHU21623XXSP,2013-04-28 21:29:00,
2013-04-28 16:34:00,79.3,49.1,29.61,South,180,8.5,14.3,35,0.00,,,0.00,WUHU21623XXSP,2013-04-28 21:34:00,
2013-04-28 16:40:00,79.9,49.6,29.61,SSW,198,8.9,13.6,35,0.00,,,0.00,WUHU21623XXSP,2013-04-28 21:40:00,
2013-04-28 16:45:00,80.4,49.3,29.60,SW,214,6.5,13.9,34,0.00,,,0.00,WUHU21623XXSP,2013-04-28 21:45:00,
2013-04-28 16:50:00,81.0,49.8,29.61,SSW,202,12.1,13.9,34,0.00,,,0.00,WUHU21623XXSP,2013-04-28 21:50:00,
2013-04-28 16:55:00,81.1,49.2,29.60,South,191,10.3,19.7,33,0.00,,,0.00,WUHU21623XXSP,2013-04-28 21:55:00,
2013-04-28 17:00:00,81.0,49.0,29.60,SSW,202,11.4,19.7,33,0.00,,,0.00,WUHU21623XXSP,2013-04-28 22:00:00,
2013-04-28 17:05:00,80.8,48.9,29.59,South,180,10.1,13.2,33,0.00,,,0.00,WUHU21623XXSP,2013-04-28 22:05:00,
2013-04-28 17:10:00,80.4,48.6,29.59,South,188,10.6,14.5,33,0.00,,,0.00,WUHU21623XXSP,2013-04-28 22:10:00,
2013-04-28 17:15:00,79.7,48.7,29.58,SSW,202,15.9,15.9,34,0.00,,,0.00,WUHU21623XXSP,2013-04-28 22:15:00,
2013-04-28 17:20:00,79.3,49.1,29.59,SW,217,9.2,15.9,35,0.00,,,0.00,WUHU21623XXSP,2013-04-28 22:20:00,
2013-04-28 17:25:00,78.3,49.0,29.59,West,270,2.6,15.2,36,0.00,,,0.00,WUHU21623XXSP,2013-04-28 22:25:00,
2013-04-28 17:30:00,77.4,49.7,29.59,NW,318,2.5,9.4,38,0.00,,,0.00,WUHU21623XXSP,2013-04-28 22:30:00,
2013-04-28 17:35:00,76.1,49.3,29.59,WSW,247,5.8,6.9,39,0.00,,,0.00,WUHU21623XXSP,2013-04-28 22:35:00,
2013-04-28 17:40:00,75.7,49.8,29.61,WSW,247,8.1,12.1,40,0.00,,,0.00,WUHU21623XXSP,2013-04-28 22:40:00,
2013-04-28 17:45:00,75.6,50.2,29.60,SW,230,3.0,12.1,41,0.00,,,0.00,WUHU21623XXSP,2013-04-28 22:45:00,
2013-04-28 17:50:00,75.7,51.0,29.59,WSW,250,2.3,8.7,42,0.00,,,0.00,WUHU21623XXSP,2013-04-28 22:50:00,
2013-04-28 17:55:00,75.9,51.2,29.59,SSW,206,2.6,6.7,42,0.00,,,0.00,WUHU21623XXSP,2013-04-28 22:55:00,
2013-04-28 18:00:00,76.3,51.5,29.59,SSW,202,2.2,5.1,42,0.00,,,0.00,WUHU21623XXSP,2013-04-28 23:00:00,
2013-04-28 18:05:00,76.3,50.9,29.60,South,186,1.7,3.8,41,0.00,,,0.00,WUHU21623XXSP,2013-04-28 23:05:00,
2013-04-28 18:10:00,75.9,51.2,29.59,South,186,1.7,3.4,42,0.00,,,0.00,WUHU21623XXSP,2013-04-28 23:10:00,
2013-04-28 18:15:00,75.9,51.2,29.59,East,90,0.0,2.2,42,0.00,,,0.00,WUHU21623XXSP,2013-04-28 23:15:00,
2013-04-28 18:20:00,75.6,51.4,29.59,NNE,24,2.3,4.5,43,0.00,,,0.00,WUHU21623XXSP,2013-04-28 23:20:00,
2013-04-28 18:25:00,75.4,51.3,29.60,NNW,337,0.0,4.5,43,0.00,,,0.00,WUHU21623XXSP,2013-04-28 23:25:00,
2013-04-28 18:30:00,75.0,50.9,29.60,WNW,292,0.9,3.8,43,0.00,,,0.00,WUHU21623XXSP,2013-04-28 23:30:00,
2013-04-28 18:35:00,75.0,50.9,29.60,NNW,337,1.1,3.8,43,0.00,,,0.00,WUHU21623XXSP,2013-04-28 23:35:00,
2013-04-28 18:40:00,74.8,50.8,29.61,NNE,22,5.4,5.4,43,0.00,,,0.00,WUHU21623XXSP,2013-04-28 23:40:00,
2013-04-28 18:45:00,74.7,50.6,29.62,North,0,3.6,5.6,43,0.00,,,0.00,WUHU21623XXSP,2013-04-28 23:45:00,
2013-04-28 18:50:00,74.5,50.4,29.62,NE,45,4.0,9.6,43,0.00,,,0.00,WUHU21623XXSP,2013-04-28 23:50:00,
2013-04-28 18:55:00,74.3,50.3,29.62,NNW,337,6.9,9.6,43,0.00,,,0.00,WUHU21623XXSP,2013-04-28 23:55:00,
2013-04-28 19:00:00,73.9,49.3,29.63,North,352,3.4,9.6,42,0.00,,,0.00,WUHU21623XXSP,2013-04-29 00:00:00,
2013-04-28 19:05:00,73.6,48.4,29.63,NNE,22,5.4,12.8,41,0.00,,,0.00,WUHU21623XXSP,2013-04-29 00:05:00,
2013-04-28 19:10:00,73.0,47.9,29.63,North,354,3.0,15.7,41,0.00,,,0.00,WUHU21623XXSP,2013-04-29 00:10:00,
2013-04-28 19:15:00,72.7,47.6,29.63,North,353,3.8,15.7,41,0.00,,,0.00,WUHU21623XXSP,2013-04-29 00:15:00,
2013-04-28 19:20:00,72.5,47.4,29.63,NNE,15,4.7,9.6,41,0.00,,,0.00,WUHU21623XXSP,2013-04-29 00:20:00,
2013-04-28 19:25:00,72.1,46.5,29.63,North,4,5.8,10.5,40,0.00,,,0.00,WUHU21623XXSP,2013-04-29 00:25:00,
2013-04-28 19:30:00,72.0,47.0,29.63,NNE,22,4.5,10.5,41,0.00,,,0.00,WUHU21623XXSP,2013-04-29 00:30:00,
2013-04-28 19:35:00,71.8,46.8,29.63,NNE,22,12.8,12.8,41,0.00,,,0.00,WUHU21623XXSP,2013-04-29 00:35:00,
2013-04-28 19:40:00,71.4,46.5,29.63,North,9,4.8,12.8,41,0.00,,,0.00,WUHU21623XXSP,2013-04-29 00:40:00,
2013-04-28 19:45:00,71.2,46.3,29.63,NNE,22,3.6,9.2,41,0.00,,,0.00,WUHU21623XXSP,2013-04-29 00:45:00,
2013-04-28 19:50:00,70.9,46.0,29.64,NNW,337,4.0,13.6,41,0.00,,,0.00,WUHU21623XXSP,2013-04-29 00:50:00,
2013-04-28 19:55:00,70.5,45.7,29.64,North,3,4.1,13.6,41,0.00,,,0.00,WUHU21623XXSP,2013-04-29 00:55:00,
2013-04-28 20:00:00,70.3,45.5,29.65,NNE,14,1.7,10.1,41,0.00,,,0.00,WUHU21623XXSP,2013-04-29 01:00:00,
2013-04-28 20:05:00,70.0,45.8,29.65,NNE,14,2.4,6.0,42,0.00,,,0.00,WUHU21623XXSP,2013-04-29 01:05:00,
2013-04-28 20:10:00,69.6,45.4,29.66,NNE,20,1.6,4.7,42,0.00,,,0.00,WUHU21623XXSP,2013-04-29 01:10:00,
2013-04-28 20:15:00,69.4,45.3,29.66,North,0,1.3,4.9,42,0.00,,,0.00,WUHU21623XXSP,2013-04-29 01:15:00,
2013-04-28 20:20:00,68.9,45.4,29.66,North,359,3.0,5.6,43,0.00,,,0.00,WUHU21623XXSP,2013-04-29 01:20:00,
2013-04-28 20:25:00,68.7,45.2,29.66,North,6,2.3,5.6,43,0.00,,,0.00,WUHU21623XXSP,2013-04-29 01:25:00,
2013-04-28 20:30:00,68.4,44.9,29.66,NE,36,1.2,3.4,43,0.00,,,0.00,WUHU21623XXSP,2013-04-29 01:30:00,
2013-04-28 20:35:00,68.2,44.7,29.66,NNE,22,3.6,4.7,43,0.00,,,0.00,WUHU21623XXSP,2013-04-29 01:35:00,
2013-04-28 20:40:00,67.8,45.0,29.66,North,349,2.6,4.9,44,0.00,,,0.00,WUHU21623XXSP,2013-04-29 01:40:00,
2013-04-28 20:45:00,67.8,45.0,29.65,NNE,22,4.0,4.9,44,0.00,,,0.00,WUHU21623XXSP,2013-04-29 01:45:00,
2013-04-28 20:50:00,67.6,44.9,29.66,NE,45,2.5,4.5,44,0.00,,,0.00,WUHU21623XXSP,2013-04-29 01:50:00,
2013-04-28 20:55:00,67.3,44.5,29.65,NE,48,2.1,4.5,44,0.00,,,0.00,WUHU21623XXSP,2013-04-29 01:55:00,
2013-04-28 21:00:00,67.3,44.5,29.66,North,0,1.8,2.7,44,0.00,,,0.00,WUHU21623XXSP,2013-04-29 02:00:00,
2013-04-28 21:05:00,67.1,45.0,29.68,ENE,67,1.1,2.2,45,0.00,,,0.00,WUHU21623XXSP,2013-04-29 02:05:00,
2013-04-28 21:10:00,66.9,44.8,29.69,West,262,1.0,1.3,45,0.00,,,0.00,WUHU21623XXSP,2013-04-29 02:10:00,
2013-04-28 21:15:00,66.9,44.8,29.69,West,270,0.9,1.3,45,0.00,,,0.00,WUHU21623XXSP,2013-04-29 02:15:00,
2013-04-28 21:20:00,66.7,44.6,29.72,West,270,1.2,3.6,45,0.00,,,0.00,WUHU21623XXSP,2013-04-29 02:20:00,
2013-04-28 21:25:00,66.0,45.2,29.72,WNW,288,1.3,3.6,47,0.00,,,0.00,WUHU21623XXSP,2013-04-29 02:25:00,
2013-04-28 21:30:00,64.9,46.8,29.72,SSE,157,1.3,3.1,52,0.00,,,0.00,WUHU21623XXSP,2013-04-29 02:30:00,
2013-04-28 21:35:00,63.9,46.3,29.72,NW,323,1.7,3.1,53,0.00,,,0.00,WUHU21623XXSP,2013-04-29 02:35:00,
2013-04-28 21:40:00,63.1,46.6,29.71,SSE,157,2.0,3.1,55,0.02,,,0.02,WUHU21623XXSP,2013-04-29 02:40:00,
2013-04-28 21:45:00,62.2,48.7,29.70,SE,142,2.8,3.4,61,0.02,,,0.02,WUHU21623XXSP,2013-04-29 02:45:00,
2013-04-28 21:50:00,61.3,48.7,29.69,SE,135,2.6,3.4,63,0.02,,,0.02,WUHU21623XXSP,2013-04-29 02:50:00,
2013-04-28 21:55:00,60.6,48.4,29.69,SSE,157,0.9,3.4,64,0.02,,,0.02,WUHU21623XXSP,2013-04-29 02:55:00,
2013-04-28 22:00:00,60.6,48.4,29.68,SSE,157,0.0,2.0,64,0.02,,,0.02,WUHU21623XXSP,2013-04-29 03:00:00,
2013-04-28 22:05:00,60.4,48.2,29.68,SE,146,1.1,1.6,64,0.02,,,0.02,WUHU21623XXSP,2013-04-29 03:05:00,
2013-04-28 22:10:00,60.3,48.1,29.69,SSE,157,1.6,1.8,64,0.02,,,0.02,WUHU21623XXSP,2013-04-29 03:10:00,
2013-04-28 22:16:00,60.1,48.3,29.69,South,177,2.3,3.1,65,0.02,,,0.02,WUHU21623XXSP,2013-04-29 03:16:00,
2013-04-28 22:21:00,59.7,47.5,29.69,SSE,157,3.8,3.8,64,0.02,,,0.02,WUHU21623XXSP,2013-04-29 03:21:00,
2013-04-28 22:26:00,59.5,47.8,29.69,SSE,157,2.2,4.0,65,0.02,,,0.02,WUHU21623XXSP,2013-04-29 03:26:00,
2013-04-28 22:31:00,59.4,48.4,29.69,SSE,157,0.9,4.0,67,0.02,,,0.02,WUHU21623XXSP,2013-04-29 03:31:00,
2013-04-28 22:36:00,59.2,47.8,29.69,SSW,202,1.3,2.5,66,0.02,,,0.02,WUHU21623XXSP,2013-04-29 03:36:00,
2013-04-28 22:41:00,58.8,47.4,29.69,SSE,157,0.7,2.2,66,0.00,,,0.02,WUHU21623XXSP,2013-04-29 03:41:00,
2013-04-28 22:46:00,58.8,47.9,29.69,SSE,157,1.1,1.1,67,0.00,,,0.02,WUHU21623XXSP,2013-04-29 03:46:00,
2013-04-28 22:51:00,58.8,47.9,29.69,SSW,202,1.0,2.0,67,0.00,,,0.02,WUHU21623XXSP,2013-04-29 03:51:00,
2013-04-28 22:56:00,58.8,48.3,29.69,SE,144,1.1,2.0,68,0.00,,,0.02,WUHU21623XXSP,2013-04-29 03:56:00,
2013-04-28 23:01:00,58.6,48.1,29.69,SSW,202,0.9,1.6,68,0.00,,,0.02,WUHU21623XXSP,2013-04-29 04:01:00,
2013-04-28 23:06:00,58.5,47.9,29.69,SSW,197,0.9,1.3,68,0.00,,,0.02,WUHU21623XXSP,2013-04-29 04:06:00,
2013-04-28 23:11:00,58.3,47.7,29.69,WNW,292,0.0,1.1,68,0.00,,,0.02,WUHU21623XXSP,2013-04-29 04:11:00,
2013-04-28 23:16:00,58.1,47.6,29.70,NNW,337,0.0,1.1,68,0.00,,,0.02,WUHU21623XXSP,2013-04-29 04:16:00,
2013-04-28 23:21:00,57.9,47.4,29.69,WNW,292,0.0,1.1,68,0.00,,,0.02,WUHU21623XXSP,2013-04-29 04:21:00,
2013-04-28 23:26:00,57.7,47.2,29.70,North,0,0.0,1.3,68,0.00,,,0.02,WUHU21623XXSP,2013-04-29 04:26:00,
2013-04-28 23:31:00,57.6,47.0,29.69,North,0,0.0,1.3,68,0.00,,,0.02,WUHU21623XXSP,2013-04-29 04:31:00,
2013-04-28 23:36:00,57.4,46.9,29.70,North,0,1.8,1.8,68,0.00,,,0.02,WUHU21623XXSP,2013-04-29 04:36:00,
2013-04-28 23:41:00,57.4,46.9,29.71,WSW,252,1.6,2.7,68,0.00,,,0.02,WUHU21623XXSP,2013-04-29 04:41:00,
2013-04-28 23:46:00,57.0,46.9,29.71,NW,319,2.4,3.4,69,0.00,,,0.02,WUHU21623XXSP,2013-04-29 04:46:00,
2013-04-28 23:51:00,57.0,47.3,29.71,WNW,291,1.9,4.0,70,0.00,,,0.02,WUHU21623XXSP,2013-04-29 04:51:00,
2013-04-28 23:56:00,57.0,47.3,29.71,WNW,299,1.5,4.0,70,0.00,,,0.02,WUHU21623XXSP,2013-04-29 04:56:00,